Time;durP1;ratioP1;P1;durP2;ratioP2;P2;SDS_P1;SDS_P2;PMS_P1;PMS_P2;Temp;Humidity;BMP_temperature;BMP_pressure;BME280_temperature;BME280_humidity;BME280_pressure;Samples;Min_cycle;Max_cycle;Signal;HPM_P1;HPM_P2
2023/05/12 00:00:03;;;;;;;22.85;10.55;;;11.50;99.90;;;;;;5087248;28;20040;-75
2023/05/12 00:02:30;;;;;;;20.48;10.82;;;11.50;99.90;;;;;;5072017;28;20060;-75
2023/05/12 00:04:55;;;;;;;17.70;10.60;;;11.50;99.90;;;;;;5069339;28;20052;-75
2023/05/12 00:07:21;;;;;;;16.60;9.52;;;11.50;99.90;;;;;;5090570;27;20521;-75
2023/05/12 00:09:47;;;;;;;15.85;9.43;;;11.50;99.90;;;;;;5118123;27;20048;-75
2023/05/12 00:12:13;;;;;;;23.35;10.85;;;11.50;99.90;;;;;;5069114;28;20143;-75
2023/05/12 00:14:38;;;;;;;15.45;10.55;;;11.50;99.90;;;;;;5085465;28;20504;-75
2023/05/12 00:17:05;;;;;;;18.15;11.05;;;11.50;99.90;;;;;;5086854;28;20083;-75
2023/05/12 00:19:32;;;;;;;15.68;10.98;;;11.50;99.90;;;;;;5071718;28;20045;-75
2023/05/12 00:21:58;;;;;;;21.33;10.82;;;11.60;99.90;;;;;;5090718;28;20573;-75
2023/05/12 00:24:24;;;;;;;24.33;11.85;;;11.60;99.90;;;;;;5086064;28;20263;-75
2023/05/12 00:26:50;;;;;;;22.92;12.48;;;11.60;99.90;;;;;;5085748;28;20429;-74
2023/05/12 00:29:17;;;;;;;22.40;11.40;;;11.70;99.90;;;;;;5069138;28;20056;-76
2023/05/12 00:31:42;;;;;;;25.40;12.57;;;11.70;99.90;;;;;;5088799;28;20063;-75
2023/05/12 00:34:08;;;;;;;22.23;12.00;;;11.70;99.90;;;;;;5085898;28;20488;-75
2023/05/12 00:36:34;;;;;;;22.27;12.80;;;11.70;99.90;;;;;;5070870;28;20118;-75
2023/05/12 00:39:00;;;;;;;25.42;12.60;;;11.70;99.90;;;;;;5085743;28;20047;-74
2023/05/12 00:41:25;;;;;;;20.20;13.32;;;11.70;99.90;;;;;;5092017;28;20056;-75
2023/05/12 00:43:51;;;;;;;23.95;12.25;;;11.70;99.90;;;;;;5085270;28;20036;-75
2023/05/12 00:46:17;;;;;;;21.23;12.25;;;11.70;99.90;;;;;;5091041;28;20042;-75
2023/05/12 00:48:47;;;;;;;28.08;14.20;;;11.70;99.90;;;;;;5069800;28;20151;-74
2023/05/12 00:51:14;;;;;;;;;;;11.70;99.90;;;;;;5052872;28;20489;-75
2023/05/12 00:53:41;;;;;;;21.95;14.15;;;11.70;99.90;;;;;;5087496;28;19938;-75
2023/05/12 00:56:07;;;;;;;31.58;15.07;;;11.60;99.90;;;;;;5085495;28;20081;-75
2023/05/12 00:58:33;;;;;;;28.77;15.15;;;11.70;99.90;;;;;;5073640;28;20553;-75
2023/05/12 01:00:58;;;;;;;24.10;13.88;;;11.60;99.90;;;;;;5102426;28;20460;-74
2023/05/12 01:03:24;;;;;;;24.33;14.52;;;11.60;99.90;;;;;;5085422;28;20448;-75
2023/05/12 01:06:01;;;;;;;24.63;15.15;;;11.60;99.90;;;;;;5067690;28;20039;-76
2023/05/12 01:08:28;;;;;;;26.85;15.52;;;11.60;99.90;;;;;;5086612;28;20098;-74
2023/05/12 01:10:54;;;;;;;25.65;15.40;;;11.60;99.90;;;;;;5053622;28;20039;-74
2023/05/12 01:13:19;;;;;;;26.95;14.77;;;11.60;99.90;;;;;;5085164;28;20194;-74
2023/05/12 01:15:46;;;;;;;27.35;14.75;;;11.60;99.90;;;;;;5068225;28;20035;-75
2023/05/12 01:18:15;;;;;;;28.30;14.68;;;11.60;99.90;;;;;;5095400;28;20410;-75
2023/05/12 01:20:44;;;;;;;26.88;13.98;;;11.50;99.90;;;;;;5085118;28;20048;-75
2023/05/12 01:23:11;;;;;;;28.00;13.73;;;11.50;99.90;;;;;;5095651;28;20052;-75
2023/05/12 01:25:40;;;;;;;27.17;13.70;;;11.50;99.90;;;;;;5101957;28;20036;-75
2023/05/12 01:28:06;;;;;;;27.30;13.23;;;11.50;99.90;;;;;;5084704;28;20512;-75
2023/05/12 01:30:33;;;;;;;28.90;14.20;;;11.50;99.90;;;;;;5101885;28;20402;-73
2023/05/12 01:32:59;;;;;;;22.80;13.45;;;11.50;99.90;;;;;;5081410;28;20395;-75
2023/05/12 01:35:25;;;;;;;28.23;13.30;;;11.50;99.90;;;;;;5073662;28;20146;-75
2023/05/12 01:37:51;;;;;;;22.27;11.93;;;11.50;99.90;;;;;;5084043;28;20044;-75
2023/05/12 01:40:16;;;;;;;23.02;11.65;;;11.50;99.90;;;;;;5088517;28;20463;-75
2023/05/12 01:42:42;;;;;;;25.83;13.00;;;11.50;99.90;;;;;;5086289;28;20156;-75
2023/05/12 01:45:09;;;;;;;26.65;12.57;;;11.40;99.90;;;;;;5084362;28;20032;-75
2023/05/12 01:47:35;;;;;;;24.70;11.75;;;11.50;99.90;;;;;;5067964;28;20052;-74
2023/05/12 01:50:01;;;;;;;24.05;12.20;;;11.50;99.90;;;;;;5051006;28;20047;-76
2023/05/12 01:52:27;;;;;;;20.52;11.32;;;11.40;99.90;;;;;;5092559;28;20044;-75
2023/05/12 01:54:53;;;;;;;27.13;11.32;;;11.50;99.90;;;;;;5072491;28;20052;-74
2023/05/12 01:57:19;;;;;;;27.75;11.90;;;11.40;99.90;;;;;;5084481;28;20047;-74
2023/05/12 01:59:44;;;;;;;22.17;11.23;;;11.50;99.90;;;;;;5085220;28;20040;-75
2023/05/12 02:02:11;;;;;;;19.10;11.32;;;11.50;99.90;;;;;;5085835;28;20434;-74
2023/05/12 02:04:37;;;;;;;21.27;11.73;;;11.50;99.90;;;;;;5093387;28;20048;-75
2023/05/12 02:07:02;;;;;;;20.67;11.18;;;11.50;99.90;;;;;;5068672;28;20044;-75
2023/05/12 02:09:28;;;;;;;23.42;11.27;;;11.50;99.90;;;;;;5079250;28;20036;-74
2023/05/12 02:11:55;;;;;;;21.77;11.73;;;11.40;99.90;;;;;;5075971;28;20481;-74
2023/05/12 02:14:21;;;;;;;18.23;11.18;;;11.50;99.90;;;;;;5085184;28;20050;-75
2023/05/12 02:16:51;;;;;;;23.27;12.48;;;11.40;99.90;;;;;;5068162;28;20036;-75
2023/05/12 02:19:18;;;;;;;23.33;10.95;;;11.40;99.90;;;;;;5083718;28;20093;-75
2023/05/12 02:21:45;;;;;;;18.85;10.93;;;11.40;99.90;;;;;;5084579;28;20044;-75
2023/05/12 02:24:11;;;;;;;27.40;11.45;;;11.40;99.90;;;;;;5085292;28;20044;-74
2023/05/12 02:26:36;;;;;;;26.30;11.82;;;11.40;99.90;;;;;;5084420;28;20036;-75
2023/05/12 02:29:02;;;;;;;21.92;11.90;;;11.40;99.90;;;;;;5084368;28;20051;-75
2023/05/12 02:31:28;;;;;;;20.92;11.68;;;11.40;99.90;;;;;;5085808;28;20157;-75
2023/05/12 02:33:54;;;;;;;18.85;10.80;;;11.40;99.90;;;;;;5085885;28;20043;-75
2023/05/12 02:36:19;;;;;;;21.95;11.23;;;11.40;99.90;;;;;;5070546;28;20044;-75
2023/05/12 02:38:45;;;;;;;25.80;11.32;;;11.40;99.90;;;;;;5079347;28;20056;-75
2023/05/12 02:41:11;;;;;;;22.10;11.82;;;11.30;99.90;;;;;;5082062;28;20047;-75
2023/05/12 02:43:36;;;;;;;24.83;12.43;;;11.40;99.90;;;;;;5088331;28;20117;-75
2023/05/12 02:46:02;;;;;;;21.60;10.60;;;11.30;99.90;;;;;;5087322;28;20066;-75
2023/05/12 02:48:28;;;;;;;24.05;11.80;;;11.40;99.90;;;;;;5087556;28;20068;-75
2023/05/12 02:50:54;;;;;;;21.60;11.00;;;11.30;99.90;;;;;;5087522;28;20119;-75
2023/05/12 02:53:20;;;;;;;25.23;11.75;;;11.30;99.90;;;;;;5087565;28;20067;-75
2023/05/12 02:55:46;;;;;;;30.58;11.07;;;11.30;99.90;;;;;;5089573;28;20036;-75
2023/05/12 02:58:11;;;;;;;25.27;12.68;;;11.30;99.90;;;;;;5075338;28;20047;-75
2023/05/12 03:00:37;;;;;;;27.90;11.85;;;11.30;99.90;;;;;;5088347;28;20543;-75
2023/05/12 03:03:03;;;;;;;26.90;12.05;;;11.40;99.90;;;;;;5086585;28;20096;-75
2023/05/12 03:05:28;;;;;;;27.42;13.18;;;11.40;99.90;;;;;;5104462;28;20047;-75
2023/05/12 03:07:54;;;;;;;26.40;12.98;;;11.40;99.90;;;;;;5086953;28;20056;-75
2023/05/12 03:10:21;;;;;;;24.67;12.95;;;11.40;99.90;;;;;;5074384;28;20479;-75
2023/05/12 03:12:46;;;;;;;26.85;13.27;;;11.40;99.90;;;;;;5086181;28;20392;-75
2023/05/12 03:15:12;;;;;;;25.60;12.02;;;11.50;99.90;;;;;;5086760;28;20090;-75
2023/05/12 03:17:38;;;;;;;24.85;13.18;;;11.40;99.90;;;;;;5089124;28;20060;-75
2023/05/12 03:20:04;;;;;;;24.58;13.48;;;11.40;99.90;;;;;;5086317;28;20505;-75
2023/05/12 03:22:30;;;;;;;26.20;12.90;;;11.50;99.90;;;;;;5087302;28;20044;-74
2023/05/12 03:24:55;;;;;;;24.30;12.48;;;11.50;99.90;;;;;;5086463;28;20587;-75
2023/05/12 03:27:21;;;;;;;26.63;12.25;;;11.50;99.90;;;;;;5099214;28;20055;-74
2023/05/12 03:29:47;;;;;;;21.27;12.27;;;11.50;99.90;;;;;;5054252;28;20405;-74
2023/05/12 03:32:13;;;;;;;25.08;12.82;;;11.50;99.90;;;;;;5085840;28;20055;-75
2023/05/12 03:34:39;;;;;;;28.48;12.65;;;11.50;99.90;;;;;;5070592;28;20090;-75
2023/05/12 03:37:05;;;;;;;30.83;13.00;;;11.40;99.90;;;;;;5074408;28;20079;-75
2023/05/12 03:39:30;;;;;;;27.10;13.23;;;11.50;99.90;;;;;;5092736;28;20071;-75
2023/05/12 03:41:56;;;;;;;21.80;12.85;;;11.50;99.90;;;;;;5085888;28;20517;-75
2023/05/12 03:44:22;;;;;;;29.60;13.68;;;11.50;99.90;;;;;;5070214;28;20083;-75
2023/05/12 03:46:47;;;;;;;25.75;13.75;;;11.50;99.90;;;;;;5086121;28;20052;-75
2023/05/12 03:49:13;;;;;;;27.73;13.80;;;11.50;99.90;;;;;;5086551;28;20086;-75
2023/05/12 03:51:39;;;;;;;32.22;15.45;;;11.50;99.90;;;;;;5086810;28;20505;-74
2023/05/12 03:54:04;;;;;;;26.08;13.60;;;11.50;99.90;;;;;;5085537;28;20040;-74
2023/05/12 03:56:30;;;;;;;28.42;13.88;;;11.50;99.90;;;;;;5073004;28;20109;-74
2023/05/12 03:58:56;;;;;;;28.30;13.57;;;11.50;99.90;;;;;;5086656;28;20501;-74
2023/05/12 04:01:22;;;;;;;29.48;13.77;;;11.60;99.90;;;;;;5078880;28;20130;-75
2023/05/12 04:03:47;;;;;;;22.98;11.57;;;11.50;99.90;;;;;;5085959;28;20044;-76
2023/05/12 04:06:13;;;;;;;35.17;13.48;;;11.50;99.90;;;;;;5069342;28;20044;-75
2023/05/12 04:08:39;;;;;;;27.67;12.52;;;11.50;99.90;;;;;;5092098;28;20125;-75
2023/05/12 04:11:05;;;;;;;27.77;12.35;;;11.50;99.90;;;;;;5071324;28;20036;-75
2023/05/12 04:13:31;;;;;;;26.27;12.13;;;11.50;99.90;;;;;;5086589;28;20073;-75
2023/05/12 04:15:58;;;;;;;25.55;11.10;;;11.50;99.90;;;;;;5085149;28;20120;-75
2023/05/12 04:18:25;;;;;;;25.95;10.27;;;11.50;99.90;;;;;;5089065;28;21688;-75
2023/05/12 04:20:52;;;;;;;24.25;12.35;;;11.40;99.90;;;;;;5073787;28;20044;-74
2023/05/12 04:23:18;;;;;;;19.90;11.68;;;11.40;99.90;;;;;;5086196;28;20044;-75
2023/05/12 04:25:44;;;;;;;26.08;13.00;;;11.40;99.90;;;;;;5085958;28;20572;-75
2023/05/12 04:28:09;;;;;;;32.50;13.40;;;11.40;99.90;;;;;;5085161;28;20090;-74
2023/05/12 04:30:38;;;;;;;23.25;13.15;;;11.40;99.90;;;;;;5091362;28;20067;-74
2023/05/12 04:33:04;;;;;;;32.42;13.75;;;11.50;99.90;;;;;;5084688;28;20186;-75
2023/05/12 04:35:30;;;;;;;27.23;13.35;;;11.50;99.90;;;;;;5086316;28;20127;-75
2023/05/12 04:37:56;;;;;;;36.60;14.25;;;11.60;99.90;;;;;;5085035;28;20044;-75
2023/05/12 04:40:22;;;;;;;32.03;14.38;;;11.60;99.90;;;;;;5089526;28;20052;-75
2023/05/12 04:42:47;;;;;;;38.08;14.77;;;11.60;99.90;;;;;;5068749;28;20036;-75
2023/05/12 04:45:13;;;;;;;42.10;16.13;;;11.60;99.90;;;;;;5087224;28;20040;-75
2023/05/12 04:47:39;;;;;;;36.78;15.95;;;11.60;99.90;;;;;;5059908;28;20166;-74
2023/05/12 04:50:05;;;;;;;45.22;16.10;;;11.70;99.90;;;;;;5067830;28;20080;-74
2023/05/12 04:52:31;;;;;;;24.75;14.15;;;11.80;99.90;;;;;;5085671;28;21036;-75
2023/05/12 04:54:57;;;;;;;43.58;15.23;;;11.80;99.90;;;;;;5082531;28;20137;-75
2023/05/12 04:57:23;;;;;;;29.58;15.27;;;11.80;99.90;;;;;;5055806;28;20074;-75
2023/05/12 04:59:49;;;;;;;38.33;16.13;;;11.80;99.90;;;;;;5090640;28;20043;-75
2023/05/12 05:02:15;;;;;;;36.30;17.83;;;11.80;99.90;;;;;;5068954;28;20052;-74
2023/05/12 05:04:41;;;;;;;42.70;18.52;;;11.80;99.90;;;;;;5087514;28;20032;-75
2023/05/12 05:07:07;;;;;;;47.85;19.17;;;11.90;99.90;;;;;;5080435;28;20082;-75
2023/05/12 05:09:32;;;;;;;44.22;20.02;;;11.90;99.90;;;;;;5094666;28;20372;-75
2023/05/12 05:11:58;;;;;;;39.35;19.33;;;11.90;99.90;;;;;;5067209;28;20123;-75
2023/05/12 05:14:24;;;;;;;45.13;19.20;;;12.00;99.90;;;;;;5071217;28;20440;-75
2023/05/12 05:16:50;;;;;;;42.78;18.75;;;12.00;99.90;;;;;;5072996;28;20452;-74
2023/05/12 05:19:16;;;;;;;41.80;19.85;;;12.00;99.90;;;;;;5076407;28;20044;-75
2023/05/12 05:21:41;;;;;;;45.50;21.63;;;12.10;99.90;;;;;;5064756;28;20052;-75
2023/05/12 05:24:07;;;;;;;45.58;19.88;;;12.00;99.90;;;;;;5064641;28;20048;-75
2023/05/12 05:26:33;;;;;;;49.40;19.70;;;12.10;99.90;;;;;;5083625;28;20537;-75
2023/05/12 05:29:00;;;;;;;36.03;18.25;;;12.10;99.90;;;;;;5069820;28;20066;-75
2023/05/12 05:31:27;;;;;;;41.55;20.50;;;12.00;99.90;;;;;;5102217;28;20048;-75
2023/05/12 05:33:53;;;;;;;39.00;19.48;;;12.10;99.90;;;;;;5071624;28;20052;-75
2023/05/12 05:36:25;;;;;;;41.67;20.98;;;12.00;99.90;;;;;;5064881;28;20367;-75
2023/05/12 05:38:50;;;;;;;46.08;21.38;;;12.10;99.90;;;;;;5090784;28;20082;-75
2023/05/12 05:41:16;;;;;;;45.55;20.63;;;12.10;99.90;;;;;;5066508;28;20076;-74
2023/05/12 05:43:42;;;;;;;48.47;21.25;;;12.20;99.90;;;;;;5080812;28;20055;-75
2023/05/12 05:46:08;;;;;;;50.70;22.35;;;12.20;99.90;;;;;;5064096;28;20052;-75
2023/05/12 05:48:35;;;;;;;48.47;21.00;;;12.20;99.90;;;;;;5081374;28;20044;-74
2023/05/12 05:51:01;;;;;;;41.90;21.05;;;12.30;99.90;;;;;;5048100;28;20040;-74
2023/05/12 05:53:27;;;;;;;47.58;22.00;;;12.30;99.90;;;;;;5051360;28;20044;-75
2023/05/12 05:55:53;;;;;;;54.90;22.02;;;12.40;99.90;;;;;;5098426;28;20043;-74
2023/05/12 05:58:18;;;;;;;56.42;25.73;;;12.40;99.90;;;;;;5093304;28;20041;-74
2023/05/12 06:00:45;;;;;;;54.80;25.42;;;12.50;99.90;;;;;;5088551;28;20528;-74
2023/05/12 06:03:11;;;;;;;55.70;26.63;;;12.40;99.90;;;;;;5067909;28;20113;-74
2023/05/12 06:05:37;;;;;;;52.08;26.27;;;12.50;99.90;;;;;;5098244;28;20484;-74
2023/05/12 06:08:04;;;;;;;58.42;28.17;;;12.50;99.90;;;;;;5063919;28;20530;-74
2023/05/12 06:10:30;;;;;;;58.75;27.20;;;12.50;99.90;;;;;;5115511;27;20258;-75
2023/05/12 06:12:56;;;;;;;53.00;25.92;;;12.60;99.90;;;;;;5087626;28;20036;-75
2023/05/12 06:15:21;;;;;;;53.53;25.90;;;12.60;99.90;;;;;;5097192;28;20044;-74
2023/05/12 06:17:47;;;;;;;55.35;27.77;;;12.70;99.90;;;;;;5088258;28;20066;-74
2023/05/12 06:20:13;;;;;;;55.00;27.15;;;12.70;99.90;;;;;;5089397;28;20425;-74
2023/05/12 06:22:41;;;;;;;55.42;26.73;;;12.80;99.90;;;;;;5071198;28;20047;-75
2023/05/12 06:25:07;;;;;;;58.47;27.63;;;12.80;99.90;;;;;;5105371;28;20058;-74
2023/05/12 06:27:33;;;;;;;63.60;28.95;;;12.80;99.90;;;;;;5087750;28;20192;-74
2023/05/12 06:29:59;;;;;;;63.83;29.67;;;12.80;99.90;;;;;;5088640;28;20530;-74
2023/05/12 06:32:25;;;;;;;54.28;27.75;;;12.90;99.90;;;;;;5087872;28;20108;-75
2023/05/12 06:34:51;;;;;;;61.30;28.35;;;12.90;99.90;;;;;;5087509;28;20482;-74
2023/05/12 06:37:16;;;;;;;65.18;30.95;;;12.90;99.90;;;;;;5088250;28;20051;-75
2023/05/12 06:39:42;;;;;;;51.28;27.25;;;12.90;99.90;;;;;;5087542;28;20160;-74
2023/05/12 06:42:10;;;;;;;48.33;26.80;;;12.90;99.90;;;;;;5089353;28;20036;-74
2023/05/12 06:44:36;;;;;;;56.05;27.70;;;13.00;99.90;;;;;;5088965;28;20390;-74
2023/05/12 06:47:03;;;;;;;55.95;29.42;;;13.00;99.90;;;;;;5087681;28;20149;-74
2023/05/12 06:49:30;;;;;;;57.45;28.67;;;13.00;99.90;;;;;;5070354;28;20028;-74
2023/05/12 06:51:55;;;;;;;59.58;29.95;;;13.10;99.90;;;;;;5069147;28;20569;-75
2023/05/12 06:54:21;;;;;;;53.85;27.45;;;13.10;99.90;;;;;;5067239;28;20129;-74
2023/05/12 06:56:47;;;;;;;55.83;29.27;;;13.10;99.90;;;;;;5084054;28;20156;-74
2023/05/12 06:59:13;;;;;;;56.25;28.80;;;13.10;99.90;;;;;;5083805;28;20501;-74
2023/05/12 07:01:40;;;;;;;51.65;28.35;;;13.10;99.90;;;;;;5079985;28;20052;-74
2023/05/12 07:04:06;;;;;;;56.65;31.83;;;13.20;99.90;;;;;;5076540;28;20506;-74
2023/05/12 07:06:33;;;;;;;59.58;32.25;;;13.30;99.90;;;;;;5101747;27;20052;-74
2023/05/12 07:08:59;;;;;;;54.35;29.63;;;13.30;99.90;;;;;;5089682;27;20055;-74
2023/05/12 07:11:25;;;;;;;59.95;32.13;;;13.40;99.90;;;;;;5083906;28;20148;-74
2023/05/12 07:13:51;;;;;;;62.95;31.77;;;13.50;99.90;;;;;;5086999;28;20070;-74
2023/05/12 07:16:18;;;;;;;60.15;31.50;;;13.50;99.90;;;;;;5087484;28;20044;-74
2023/05/12 07:18:44;;;;;;;61.65;30.70;;;13.60;99.90;;;;;;5070497;28;20087;-74
2023/05/12 07:21:10;;;;;;;60.55;31.23;;;13.70;99.90;;;;;;5082948;28;20087;-74
2023/05/12 07:23:36;;;;;;;62.78;31.50;;;13.80;99.90;;;;;;5093642;28;20079;-74
2023/05/12 07:26:04;;;;;;;56.03;31.08;;;13.90;99.90;;;;;;5084670;28;20058;-74
2023/05/12 07:28:34;;;;;;;65.13;32.25;;;14.00;99.90;;;;;;5075188;28;20036;-74
2023/05/12 07:31:00;;;;;;;63.88;34.42;;;14.10;99.90;;;;;;5068880;28;20044;-74
2023/05/12 07:33:26;;;;;;;57.22;31.67;;;14.10;99.90;;;;;;5102738;27;20117;-74
2023/05/12 07:35:52;;;;;;;55.10;29.90;;;14.10;99.90;;;;;;5104067;27;20398;-74
2023/05/12 07:38:17;;;;;;;50.28;28.95;;;14.20;99.90;;;;;;5088333;28;20097;-74
2023/05/12 07:40:43;;;;;;;58.08;31.80;;;14.30;99.90;;;;;;5087557;28;20059;-74
2023/05/12 07:43:10;;;;;;;56.35;31.48;;;14.50;99.90;;;;;;5069911;28;20502;-74
2023/05/12 07:45:35;;;;;;;58.40;32.60;;;14.70;99.90;;;;;;5086648;28;20092;-74
2023/05/12 07:48:02;;;;;;;56.58;33.78;;;14.90;99.90;;;;;;5102991;28;20044;-73
2023/05/12 07:50:28;;;;;;;51.83;30.35;;;14.90;99.90;;;;;;5086648;28;20040;-74
2023/05/12 07:52:54;;;;;;;55.78;31.55;;;14.90;99.90;;;;;;5087307;28;20070;-74
2023/05/12 07:55:21;;;;;;;50.47;31.52;;;14.90;99.90;;;;;;5085063;28;20045;-74
2023/05/12 07:57:49;;;;;;;51.92;30.38;;;14.90;99.90;;;;;;5086151;28;20051;-74
2023/05/12 08:00:15;;;;;;;53.47;29.55;;;15.00;99.90;;;;;;5089714;28;20489;-73
2023/05/12 08:02:41;;;;;;;51.03;31.48;;;15.10;99.90;;;;;;5055393;28;20039;-75
2023/05/12 08:05:08;;;;;;;50.67;29.40;;;15.20;99.90;;;;;;5101928;27;20075;-74
2023/05/12 08:07:34;;;;;;;43.85;28.83;;;15.20;99.90;;;;;;5085682;28;20403;-74
2023/05/12 08:10:01;;;;;;;41.05;28.35;;;15.20;99.90;;;;;;5073188;28;20064;-74
2023/05/12 08:12:27;;;;;;;42.45;29.60;;;15.30;99.90;;;;;;5098582;28;20083;-74
2023/05/12 08:14:53;;;;;;;44.47;28.88;;;15.40;99.90;;;;;;5086145;28;20078;-73
2023/05/12 08:17:19;;;;;;;48.55;27.83;;;15.50;99.90;;;;;;5076976;28;20149;-74
2023/05/12 08:19:44;;;;;;;44.70;28.10;;;15.50;99.90;;;;;;5081681;28;20048;-74
2023/05/12 08:22:10;;;;;;;41.10;26.67;;;15.60;99.90;;;;;;5069912;28;20517;-74
2023/05/12 08:24:36;;;;;;;45.25;28.10;;;15.80;99.90;;;;;;5110782;27;20406;-74
2023/05/12 08:27:01;;;;;;;39.22;25.88;;;16.00;99.90;;;;;;5065208;28;20095;-73
2023/05/12 08:29:28;;;;;;;39.42;26.50;;;16.00;99.90;;;;;;5068931;28;20099;-73
2023/05/12 08:31:53;;;;;;;41.53;26.63;;;16.00;99.90;;;;;;5077763;28;20047;-74
2023/05/12 08:34:19;;;;;;;38.10;25.65;;;16.00;99.90;;;;;;5111442;27;20047;-73
2023/05/12 08:36:45;;;;;;;39.25;26.17;;;16.20;99.90;;;;;;5069082;28;20073;-73
2023/05/12 08:39:11;;;;;;;37.08;24.08;;;16.20;99.90;;;;;;5086836;28;20063;-73
2023/05/12 08:42:09;;;;;;;37.45;24.67;;;16.20;99.90;;;;;;5101330;28;20065;-73
2023/05/12 08:44:39;;;;;;;35.15;23.10;;;16.30;99.90;;;;;;5081488;28;20136;-74
2023/05/12 08:47:05;;;;;;;35.33;24.33;;;16.40;99.90;;;;;;5084780;28;20055;-74
2023/05/12 08:49:33;;;;;;;33.53;23.17;;;16.50;99.90;;;;;;5082138;28;20051;-74
2023/05/12 08:52:01;;;;;;;39.85;23.73;;;16.70;99.90;;;;;;5071702;28;20426;-73
2023/05/12 08:54:28;;;;;;;32.63;23.23;;;16.80;99.90;;;;;;5098337;27;20090;-73
2023/05/12 08:56:55;;;;;;;33.83;22.75;;;16.90;99.90;;;;;;5066474;28;20044;-74
2023/05/12 08:59:23;;;;;;;39.22;24.65;;;17.00;99.90;;;;;;5059932;28;20079;-74
2023/05/12 09:01:49;;;;;;;35.55;22.10;;;17.30;99.90;;;;;;5073579;28;20120;-73
2023/05/12 09:04:16;;;;;;;30.23;21.00;;;17.70;99.90;;;;;;5078483;28;20495;-74
2023/05/12 09:06:45;;;;;;;33.08;21.77;;;18.10;99.90;;;;;;5090129;27;20506;-74
2023/05/12 09:09:16;;;;;;;26.92;19.98;;;18.50;99.90;;;;;;5076307;28;20067;-74
2023/05/12 09:11:42;;;;;;;27.35;18.42;;;18.50;99.90;;;;;;5087779;28;20509;-74
2023/05/12 09:14:16;;;;;;;23.45;18.10;;;18.70;99.90;;;;;;5072800;28;20051;-74
2023/05/12 09:16:47;;;;;;;20.80;16.42;;;18.50;99.90;;;;;;5084632;28;20551;-74
2023/05/12 09:19:18;;;;;;;23.77;16.60;;;18.30;99.90;;;;;;5057137;28;20031;-74
2023/05/12 09:21:44;;;;;;;19.92;15.10;;;18.20;99.90;;;;;;5098214;28;20048;-74
2023/05/12 09:24:10;;;;;;;21.52;15.18;;;18.00;99.90;;;;;;5079631;28;20055;-74
2023/05/12 09:26:47;;;;;;;22.08;14.70;;;17.90;99.90;;;;;;5063507;28;20386;-74
2023/05/12 09:29:15;;;;;;;17.30;14.73;;;17.90;99.90;;;;;;5089288;28;20056;-74
2023/05/12 09:31:56;;;;;;;18.55;14.30;;;18.00;99.90;;;;;;5083874;28;20047;-74
2023/05/12 09:34:31;;;;;;;17.88;13.65;;;18.20;99.90;;;;;;5077169;28;20072;-73
2023/05/12 09:37:01;;;;;;;20.08;14.70;;;18.30;99.90;;;;;;5072175;28;20136;-73
2023/05/12 09:39:27;;;;;;;19.38;14.23;;;18.40;99.90;;;;;;5068196;28;20509;-74
2023/05/12 09:41:53;;;;;;;18.38;13.27;;;18.70;99.90;;;;;;5071321;28;20498;-74
2023/05/12 09:44:20;;;;;;;15.32;12.75;;;18.80;99.90;;;;;;5087151;28;20044;-73
2023/05/12 09:46:47;;;;;;;17.70;12.50;;;19.00;99.90;;;;;;5070359;28;20033;-73
2023/05/12 09:49:21;;;;;;;16.23;11.90;;;19.20;99.90;;;;;;5082213;28;20051;-73
2023/05/12 09:52:00;;;;;;;13.45;10.25;;;19.50;99.90;;;;;;5077731;28;20041;-73
2023/05/12 09:54:30;;;;;;;13.43;11.43;;;19.90;99.90;;;;;;5072738;28;20087;-74
2023/05/12 09:57:06;;;;;;;11.95;9.60;;;19.90;99.90;;;;;;5083083;28;20048;-74
2023/05/12 09:59:34;;;;;;;15.30;10.18;;;20.10;99.90;;;;;;5072326;28;20549;-73
2023/05/12 10:02:04;;;;;;;11.15;9.65;;;20.30;99.90;;;;;;5080397;28;20049;-73
2023/05/12 10:04:38;;;;;;;12.85;8.73;;;20.20;90.80;;;;;;5086467;28;20470;-73
2023/05/12 10:07:08;;;;;;;12.10;9.18;;;20.20;99.90;;;;;;5083601;28;20129;-73
2023/05/12 10:09:38;;;;;;;11.70;9.20;;;20.20;99.90;;;;;;5079952;28;20131;-74
2023/05/12 10:12:05;;;;;;;9.68;8.55;;;20.40;93.10;;;;;;5079213;28;20499;-74
2023/05/12 10:14:31;;;;;;;12.30;7.70;;;20.30;81.90;;;;;;5052245;28;20044;-73
2023/05/12 10:16:58;;;;;;;10.98;8.27;;;20.40;99.90;;;;;;5073206;28;20612;-73
2023/05/12 10:19:25;;;;;;;9.43;8.05;;;20.30;66.80;;;;;;5078716;28;20402;-73
2023/05/12 10:21:52;;;;;;;13.82;8.10;;;20.30;84.30;;;;;;5099968;28;20091;-72
2023/05/12 10:24:19;;;;;;;10.27;7.72;;;20.30;63.30;;;;;;5074725;28;20119;-73
2023/05/12 10:26:46;;;;;;;9.98;8.65;;;20.30;98.50;;;;;;5088635;28;20072;-73
2023/05/12 10:29:12;;;;;;;9.50;7.25;;;20.40;59.90;;;;;;5060551;28;20526;-72
2023/05/12 10:31:38;;;;;;;9.80;6.63;;;20.40;88.20;;;;;;5091221;28;20126;-72
2023/05/12 10:34:05;;;;;;;7.53;6.75;;;20.60;69.00;;;;;;5086208;28;20044;-72
2023/05/12 10:36:45;;;;;;;10.32;7.00;;;20.80;92.50;;;;;;5085310;28;20041;-72
2023/05/12 10:39:14;;;;;;;10.45;6.35;;;21.00;88.60;;;;;;5102239;28;20044;-72
2023/05/12 10:41:40;;;;;;;6.83;6.23;;;21.10;69.80;;;;;;5104182;28;20055;-72
2023/05/12 10:44:06;;;;;;;7.97;6.53;;;21.30;68.50;;;;;;5082785;28;20105;-72
2023/05/12 10:46:31;;;;;;;7.60;6.47;;;21.30;67.30;;;;;;5054302;28;20044;-72
2023/05/12 10:49:05;;;;;;;7.07;5.88;;;21.40;64.90;;;;;;5088425;28;20048;-72
2023/05/12 10:51:44;;;;;;;5.63;5.13;;;21.40;46.30;;;;;;5082209;28;20413;-72
2023/05/12 10:54:17;;;;;;;8.93;5.82;;;21.40;62.60;;;;;;5065566;28;20043;-73
2023/05/12 10:56:43;;;;;;;7.05;5.18;;;21.50;48.90;;;;;;5100290;27;20270;-72
2023/05/12 10:59:21;;;;;;;6.38;5.10;;;21.40;61.70;;;;;;5102053;28;20048;-72
2023/05/12 11:02:07;;;;;;;7.03;4.70;;;21.30;57.70;;;;;;5068375;28;20043;-72
2023/05/12 11:04:54;;;;;;;5.60;4.30;;;21.10;34.60;;;;;;5063204;28;20044;-72
2023/05/12 11:07:22;;;;;;;4.18;3.50;;;21.00;60.20;;;;;;5086184;28;20185;-72
2023/05/12 11:09:50;;;;;;;8.48;3.75;;;20.80;41.80;;;;;;5086225;28;20047;-71
2023/05/12 11:12:16;;;;;;;9.55;4.95;;;20.70;33.90;;;;;;5082930;28;20047;-71
2023/05/12 11:14:43;;;;;;;3.95;3.63;;;20.80;60.00;;;;;;5080450;28;20040;-71
2023/05/12 11:17:10;;;;;;;3.97;3.42;;;20.80;48.00;;;;;;5075805;28;20425;-72
2023/05/12 11:19:36;;;;;;;7.13;3.65;;;20.90;51.00;;;;;;5067513;28;20044;-72
2023/05/12 11:22:10;;;;;;;5.93;3.28;;;20.90;44.60;;;;;;5100642;28;20043;-71
2023/05/12 11:24:38;;;;;;;3.47;3.20;;;21.00;56.90;;;;;;5083990;28;20052;-71
2023/05/12 11:27:05;;;;;;;6.40;2.97;;;21.10;26.90;;;;;;5108684;27;20060;-71
2023/05/12 11:29:31;;;;;;;4.75;3.50;;;21.10;32.40;;;;;;5087742;27;20521;-72
2023/05/12 11:31:59;;;;;;;3.40;2.97;;;21.10;33.60;;;;;;5117659;27;20044;-71
2023/05/12 11:34:26;;;;;;;3.00;2.72;;;21.20;54.50;;;;;;5085215;28;20079;-71
2023/05/12 11:36:54;;;;;;;4.47;2.90;;;21.30;28.60;;;;;;5080099;28;20044;-71
2023/05/12 11:39:29;;;;;;;2.47;2.28;;;21.40;49.20;;;;;;5088809;28;20127;-71
2023/05/12 11:42:04;;;;;;;2.50;2.30;;;21.40;21.70;;;;;;5087854;27;20476;-72
2023/05/12 11:44:30;;;;;;;3.00;2.35;;;21.50;48.90;;;;;;5072811;28;20127;-71
2023/05/12 11:47:11;;;;;;;4.47;2.42;;;21.60;20.30;;;;;;5088747;28;20041;-71
2023/05/12 11:49:47;;;;;;;2.60;2.40;;;21.50;7.20;;;;;;5076548;28;20418;-71
2023/05/12 11:52:13;;;;;;;8.02;2.95;;;21.40;3.80;;;;;;5098084;28;20051;-71
2023/05/12 11:54:46;;;;;;;4.20;2.38;;;21.40;18.50;;;;;;5087134;28;20059;-71
2023/05/12 11:57:12;;;;;;;2.85;2.10;;;21.50;1.00;;;;;;5107868;27;20064;-72
2023/05/12 11:59:37;;;;;;;2.50;2.30;;;21.50;3.30;;;;;;5072492;28;20049;-71
2023/05/12 12:02:03;;;;;;;2.53;2.33;;;21.60;2.00;;;;;;5078515;28;20031;-71
2023/05/12 12:04:39;;;;;;;2.10;1.95;;;21.60;1.00;;;;;;5083552;28;20077;-71
2023/05/12 12:07:06;;;;;;;2.00;1.90;;;21.60;1.00;;;;;;5104137;27;20114;-71
2023/05/12 12:09:36;;;;;;;5.03;1.90;;;21.50;1.00;;;;;;5094042;28;20390;-71
2023/05/12 12:12:03;;;;;;;3.90;1.60;;;21.50;1.40;;;;;;5078216;28;20046;-71
2023/05/12 12:14:30;;;;;;;1.60;1.40;;;21.50;1.00;;;;;;5050375;28;20036;-71
2023/05/12 12:16:56;;;;;;;3.42;2.08;;;21.60;1.00;;;;;;5082262;28;20055;-71
2023/05/12 12:19:22;;;;;;;3.40;1.48;;;21.80;1.00;;;;;;5065425;28;20779;-71
2023/05/12 12:21:48;;;;;;;2.60;1.80;;;21.90;1.00;;;;;;5065984;28;20040;-71
2023/05/12 12:24:14;;;;;;;3.33;1.45;;;22.00;1.00;;;;;;5085611;28;20044;-71
2023/05/12 12:26:40;;;;;;;2.33;1.38;;;22.00;1.00;;;;;;5061661;28;20105;-71
2023/05/12 12:29:05;;;;;;;3.53;1.15;;;22.00;1.00;;;;;;5081288;28;20075;-71